createdAt,value
2023-08-22T00:00:39.624Z,94021.81
2023-08-22T00:03:06.693Z,94015.81
2023-08-22T00:05:36.073Z,94020.84
2023-08-22T00:08:06.906Z,94019.50
2023-08-22T00:10:34.094Z,94014.63
2023-08-22T00:13:01.068Z,94017.22
2023-08-22T00:15:28.239Z,94018.44
2023-08-22T00:17:56.204Z,94015.81
2023-08-22T00:20:26.094Z,94015.53
2023-08-22T00:22:54.863Z,94016.50
2023-08-22T00:25:22.325Z,94010.66
2023-08-22T00:27:49.264Z,94015.84
2023-08-22T00:30:16.396Z,94007.19
2023-08-22T00:32:43.427Z,94003.41
2023-08-22T00:35:10.511Z,93997.50
2023-08-22T00:37:37.829Z,94011.03
2023-08-22T00:40:08.361Z,94006.09
2023-08-22T00:42:35.325Z,94006.81
2023-08-22T00:45:02.953Z,94006.22
2023-08-22T00:47:30.211Z,94012.19
2023-08-22T00:49:57.447Z,94008.34
2023-08-22T00:52:24.756Z,94014.59
2023-08-22T00:54:52.002Z,94013.72
2023-08-22T00:57:21.207Z,94013.06
2023-08-22T00:59:48.350Z,94014.53
2023-08-22T01:02:16.285Z,94011.56
2023-08-22T01:04:44.132Z,94016.94
2023-08-22T01:07:16.438Z,94010.69
2023-08-22T01:09:47.686Z,94011.22
2023-08-22T01:12:18.479Z,94006.28
2023-08-22T01:14:52.541Z,94010.28
2023-08-22T01:17:19.617Z,94010.56
2023-08-22T01:19:46.853Z,94006.38
2023-08-22T01:22:15.166Z,94011.38
2023-08-22T01:24:43.182Z,94007.19
2023-08-22T01:27:14.044Z,94006.88
2023-08-22T01:29:51.761Z,94005.19
2023-08-22T01:32:22.724Z,94003.59
2023-08-22T01:34:52.210Z,94012.34
2023-08-22T01:37:21.568Z,94008.53
2023-08-22T01:39:48.696Z,94007.06
2023-08-22T01:42:17.235Z,94007.72
2023-08-22T01:44:44.207Z,94001.22
2023-08-22T01:47:12.005Z,94010.00
2023-08-22T01:49:39.049Z,94011.53
2023-08-22T01:52:06.119Z,94009.66
2023-08-22T01:54:35.233Z,94008.25
2023-08-22T01:57:02.405Z,94013.84
2023-08-22T01:59:29.480Z,94008.94
2023-08-22T02:01:57.978Z,94019.56
2023-08-22T02:04:25.013Z,94015.25
2023-08-22T02:06:51.944Z,94016.19
2023-08-22T02:09:19.494Z,94009.66
2023-08-22T02:11:47.953Z,94003.16
2023-08-22T02:14:14.937Z,94006.06
2023-08-22T02:16:42.654Z,94012.41
2023-08-22T02:19:09.913Z,94008.78
2023-08-22T02:21:36.996Z,94011.94
2023-08-22T02:24:04.356Z,94004.03
2023-08-22T02:26:32.042Z,94010.41
2023-08-22T02:29:00.376Z,94006.31
2023-08-22T02:31:28.756Z,94009.16
2023-08-22T02:33:55.921Z,94005.31
2023-08-22T02:36:23.451Z,94007.00
2023-08-22T02:38:51.514Z,94008.09
2023-08-22T02:41:18.483Z,94006.84
2023-08-22T02:43:45.593Z,94009.47
2023-08-22T02:46:14.026Z,94006.03
2023-08-22T02:48:41.166Z,94010.53
2023-08-22T02:51:08.629Z,94010.81
2023-08-22T02:53:35.574Z,94016.34
2023-08-22T02:56:03.234Z,94023.03
2023-08-22T02:58:30.225Z,94023.47
2023-08-22T03:00:57.381Z,94024.03
2023-08-22T03:03:26.066Z,94017.38
2023-08-22T03:05:52.990Z,94024.84
2023-08-22T03:08:20.221Z,94022.25
2023-08-22T03:10:47.778Z,94025.78
2023-08-22T03:13:15.153Z,94025.00
2023-08-22T03:15:42.147Z,94029.69
2023-08-22T03:18:10.457Z,94027.88
2023-08-22T03:20:39.406Z,94020.00
2023-08-22T03:23:06.509Z,94025.34
2023-08-22T03:25:34.026Z,94027.53
2023-08-22T03:28:01.377Z,94024.47
2023-08-22T03:30:28.973Z,94031.03
2023-08-22T03:32:56.196Z,94035.03
2023-08-22T03:35:23.216Z,94044.97
2023-08-22T03:37:51.739Z,94040.47
2023-08-22T03:40:18.914Z,94042.88
2023-08-22T03:42:48.258Z,94041.63
2023-08-22T03:45:15.390Z,94035.47
2023-08-22T03:47:43.164Z,94031.66
2023-08-22T03:50:11.255Z,94041.31
2023-08-22T03:52:38.233Z,94033.06
2023-08-22T03:55:07.728Z,94035.09
2023-08-22T03:57:34.637Z,94031.47
2023-08-22T04:00:01.663Z,94029.06
2023-08-22T04:02:29.419Z,94032.03
2023-08-22T04:04:58.724Z,94043.84
2023-08-22T04:07:26.290Z,94032.78
2023-08-22T04:09:53.294Z,94038.72
2023-08-22T04:12:21.736Z,94048.19
2023-08-22T04:14:48.777Z,94049.34
2023-08-22T04:17:15.785Z,94053.47
2023-08-22T04:19:43.074Z,94053.88
2023-08-22T04:22:10.096Z,94052.75
2023-08-22T04:24:37.240Z,94055.22
2023-08-22T04:27:05.110Z,94061.72
2023-08-22T04:29:34.390Z,94064.44
2023-08-22T04:32:04.864Z,94056.88
2023-08-22T04:34:32.380Z,94060.28
2023-08-22T04:37:01.584Z,94059.06
2023-08-22T04:39:28.584Z,94059.44
2023-08-22T04:42:05.837Z,94058.28
2023-08-22T04:44:49.912Z,94063.72
2023-08-22T04:47:17.029Z,94062.75
2023-08-22T04:49:43.957Z,94067.44
2023-08-22T04:52:11.101Z,94066.88
2023-08-22T04:54:38.146Z,94077.38
2023-08-22T04:57:05.237Z,94077.47
2023-08-22T04:59:33.396Z,94085.22
2023-08-22T05:02:02.273Z,94074.81
2023-08-22T05:04:30.730Z,94079.75
2023-08-22T05:06:58.090Z,94082.31
2023-08-22T05:09:25.107Z,94085.72
2023-08-22T05:11:52.281Z,94081.97
2023-08-22T05:14:20.608Z,94083.16
2023-08-22T05:16:48.213Z,94082.63
2023-08-22T05:19:16.802Z,94080.25
2023-08-22T05:21:43.926Z,94080.50
2023-08-22T05:24:11.807Z,94077.34
2023-08-22T05:26:38.877Z,94077.81
2023-08-22T05:29:06.320Z,94079.31
2023-08-22T05:31:34.268Z,94076.16
2023-08-22T05:34:01.523Z,94086.88
2023-08-22T05:36:29.934Z,94085.06
2023-08-22T05:38:57.735Z,94083.47
2023-08-22T05:41:25.104Z,94083.94
2023-08-22T05:43:52.251Z,94087.09
2023-08-22T05:46:19.469Z,94087.34
2023-08-22T05:48:47.162Z,94093.28
2023-08-22T05:51:14.183Z,94086.44
2023-08-22T05:53:42.503Z,94084.03
2023-08-22T05:56:09.668Z,94086.28
2023-08-22T05:58:36.736Z,94072.78
2023-08-22T06:01:09.133Z,94075.38
2023-08-22T06:03:36.291Z,94075.47
2023-08-22T06:06:04.320Z,94066.16
2023-08-22T06:08:31.470Z,94079.88
2023-08-22T06:11:00.349Z,94073.41
2023-08-22T06:13:27.809Z,94083.63
2023-08-22T06:15:56.938Z,94066.13
2023-08-22T06:18:24.033Z,94066.75
2023-08-22T06:20:52.055Z,94069.22
2023-08-22T06:23:19.236Z,94063.06
2023-08-22T06:25:48.013Z,94071.66
2023-08-22T06:28:18.537Z,94062.94
2023-08-22T06:30:45.613Z,94070.81
2023-08-22T06:33:12.699Z,94062.84
2023-08-22T06:35:39.746Z,94061.63
2023-08-22T06:38:06.869Z,94066.41
2023-08-22T06:40:35.869Z,94064.78
2023-08-22T06:43:02.916Z,94067.72
2023-08-22T06:45:33.860Z,94074.19
2023-08-22T06:48:00.945Z,94072.22
2023-08-22T06:50:27.998Z,94077.63
2023-08-22T06:52:54.929Z,94077.72
2023-08-22T06:55:21.885Z,94076.59
2023-08-22T06:57:49.291Z,94082.00
2023-08-22T07:00:18.133Z,94079.97
2023-08-22T07:02:47.440Z,94078.22
2023-08-22T07:05:16.049Z,94077.81
2023-08-22T07:07:43.884Z,94077.28
2023-08-22T07:10:14.256Z,94071.72
2023-08-22T07:12:42.839Z,94067.22
2023-08-22T07:15:10.487Z,94065.16
2023-08-22T07:17:37.580Z,94067.34
2023-08-22T07:20:07.559Z,94072.41
2023-08-22T07:22:34.882Z,94069.09
2023-08-22T07:25:01.909Z,94062.88
2023-08-22T07:27:28.892Z,94065.06
2023-08-22T07:29:56.053Z,94061.19
2023-08-22T07:32:23.029Z,94064.41
2023-08-22T07:34:50.048Z,94060.50
2023-08-22T07:37:18.787Z,94057.09
2023-08-22T07:39:45.766Z,94058.72
2023-08-22T07:42:12.914Z,94054.00
2023-08-22T07:44:39.903Z,94051.63
2023-08-22T07:47:07.010Z,94064.88
2023-08-22T07:49:34.875Z,94055.84
2023-08-22T07:52:01.916Z,94057.97
2023-08-22T07:54:32.022Z,94062.75
2023-08-22T07:57:16.490Z,94055.56
2023-08-22T07:59:45.659Z,94059.78
2023-08-22T08:02:12.706Z,94063.44
2023-08-22T08:04:39.657Z,94059.50
2023-08-22T08:07:06.609Z,94061.59
2023-08-22T08:09:36.652Z,94056.22
2023-08-22T08:12:04.583Z,94045.56
2023-08-22T08:14:31.681Z,94062.81
2023-08-22T08:16:58.792Z,94060.38
2023-08-22T08:19:27.563Z,94059.19
2023-08-22T08:21:55.091Z,94056.41
2023-08-22T08:24:22.046Z,94056.19
2023-08-22T08:26:50.395Z,94050.19
2023-08-22T08:29:19.507Z,94056.94
2023-08-22T08:31:46.584Z,94056.16
2023-08-22T08:34:13.517Z,94052.97
2023-08-22T08:36:40.559Z,94051.28
2023-08-22T08:39:07.826Z,94062.94
2023-08-22T08:41:35.588Z,94065.31
2023-08-22T08:44:04.479Z,94063.69
2023-08-22T08:46:32.358Z,94056.66
2023-08-22T08:48:59.434Z,94051.81
2023-08-22T08:51:26.349Z,94046.59
2023-08-22T08:53:55.242Z,94052.38
2023-08-22T08:56:24.409Z,94048.03
2023-08-22T08:58:52.331Z,94042.25
2023-08-22T09:01:22.384Z,94048.63
2023-08-22T09:03:49.359Z,94047.75
2023-08-22T09:06:16.125Z,94039.41
2023-08-22T09:09:03.024Z,94039.28
2023-08-22T09:11:30.057Z,94044.59
2023-08-22T09:13:57.403Z,94046.09
2023-08-22T09:16:26.414Z,94040.13
2023-08-22T09:18:53.924Z,94038.47
2023-08-22T09:21:20.916Z,94040.09
2023-08-22T09:23:50.909Z,94033.59
2023-08-22T09:26:23.071Z,94032.69
2023-08-22T09:28:50.147Z,94030.56
2023-08-22T09:31:23.160Z,94033.19
2023-08-22T09:33:52.030Z,94029.19
2023-08-22T09:36:21.257Z,94026.16
2023-08-22T09:38:53.188Z,94027.97
2023-08-22T09:41:24.239Z,94024.97
2023-08-22T09:44:02.099Z,94022.84
2023-08-22T09:46:31.238Z,94013.31
2023-08-22T09:49:02.296Z,94013.66
2023-08-22T09:51:29.448Z,94021.53
2023-08-22T09:54:05.744Z,94012.72
2023-08-22T09:56:34.880Z,94009.97
2023-08-22T09:59:02.373Z,94001.63
2023-08-22T10:01:30.776Z,94002.44
2023-08-22T10:03:59.410Z,93998.94
2023-08-22T10:06:42.306Z,94001.69
2023-08-22T10:09:13.073Z,94001.44
2023-08-22T10:11:43.642Z,93997.22
2023-08-22T10:14:14.562Z,93988.38
2023-08-22T10:16:41.776Z,93985.84
2023-08-22T10:19:10.606Z,93977.97
2023-08-22T10:21:44.847Z,93976.91
2023-08-22T10:24:21.409Z,93980.97
2023-08-22T10:27:02.279Z,93972.13
2023-08-22T10:29:33.148Z,93982.31
2023-08-22T10:32:25.138Z,93971.69
2023-08-22T10:35:21.578Z,93973.25
2023-08-22T10:37:50.277Z,93968.56
2023-08-22T10:40:26.131Z,93961.16
2023-08-22T10:43:04.784Z,93955.34
2023-08-22T10:45:43.447Z,93967.53
2023-08-22T10:48:12.497Z,93960.84
2023-08-22T10:50:45.167Z,93958.28
2023-08-22T10:53:25.735Z,93954.41
2023-08-22T10:55:53.722Z,93953.81
2023-08-22T10:58:38.399Z,93955.13
2023-08-22T11:01:07.851Z,93950.75
2023-08-22T11:03:35.058Z,93953.97
2023-08-22T11:06:11.810Z,93959.16
2023-08-22T11:08:39.888Z,93948.50
2023-08-22T11:11:06.996Z,93960.00
2023-08-22T11:13:38.913Z,93960.47
2023-08-22T11:16:10.236Z,93960.25
2023-08-22T11:18:37.529Z,93963.44
2023-08-22T11:21:06.187Z,93959.63
2023-08-22T11:23:34.089Z,93961.03
2023-08-22T11:26:05.288Z,93958.59
2023-08-22T11:28:34.516Z,93957.91
2023-08-22T11:31:01.848Z,93956.72
2023-08-22T11:33:36.069Z,93953.69
2023-08-22T11:36:04.409Z,93954.81
2023-08-22T11:38:35.496Z,93947.09
2023-08-22T11:41:02.561Z,93950.06
2023-08-22T11:43:29.531Z,93951.59
2023-08-22T11:45:56.638Z,93952.66
2023-08-22T11:48:24.314Z,93945.81
2023-08-22T11:50:51.925Z,93940.09
2023-08-22T11:53:18.854Z,93938.97
2023-08-22T11:55:56.676Z,93942.78
2023-08-22T11:58:24.177Z,93942.34
2023-08-22T12:00:58.033Z,93931.78
2023-08-22T12:03:40.044Z,93933.00
2023-08-22T12:06:11.765Z,93930.03
2023-08-22T12:08:38.888Z,93931.19
2023-08-22T12:11:07.455Z,93924.69
2023-08-22T12:13:34.495Z,93925.34
2023-08-22T12:16:01.457Z,93924.59
2023-08-22T12:18:30.048Z,93923.03
2023-08-22T12:20:56.932Z,93919.19
2023-08-22T12:23:23.643Z,93915.88
2023-08-22T12:25:50.836Z,93909.13
2023-08-22T12:28:19.178Z,93915.06
2023-08-22T12:30:46.307Z,93915.84
2023-08-22T12:33:14.031Z,93912.50
2023-08-22T12:35:41.358Z,93908.44
2023-08-22T12:38:08.879Z,93913.69
2023-08-22T12:40:36.252Z,93913.19
2023-08-22T12:43:03.546Z,93911.63
2023-08-22T12:45:32.500Z,93915.69
2023-08-22T12:47:59.654Z,93912.38
2023-08-22T12:50:26.691Z,93921.78
2023-08-22T12:52:53.909Z,93923.50
2023-08-22T12:55:22.226Z,93922.50
2023-08-22T12:57:49.736Z,93924.72
2023-08-22T13:00:17.364Z,93935.06
2023-08-22T13:02:46.493Z,93935.28
2023-08-22T13:05:15.592Z,93938.00
2023-08-22T13:07:44.587Z,93945.34
2023-08-22T13:10:11.945Z,93944.09
2023-08-22T13:12:38.676Z,93948.44
2023-08-22T13:15:06.871Z,93944.22
2023-08-22T13:17:33.918Z,93943.59
2023-08-22T13:20:02.196Z,93946.69
2023-08-22T13:22:29.279Z,93946.97
2023-08-22T13:24:56.175Z,93941.84
2023-08-22T13:27:23.518Z,93940.72
2023-08-22T13:29:50.506Z,93940.59
2023-08-22T13:32:17.659Z,93931.66
2023-08-22T13:34:44.486Z,93939.41
2023-08-22T13:37:12.891Z,93931.66
2023-08-22T13:39:39.957Z,93928.63
2023-08-22T13:42:07.416Z,93927.34
2023-08-22T13:44:34.369Z,93932.56
2023-08-22T13:47:01.482Z,93919.00
2023-08-22T13:49:29.147Z,93928.16
2023-08-22T13:51:56.199Z,93928.00
2023-08-22T13:54:24.539Z,93919.41
2023-08-22T13:56:51.481Z,93907.75
2023-08-22T13:59:18.806Z,93904.31
2023-08-22T14:01:47.732Z,93900.28
2023-08-22T14:04:17.369Z,93904.22
2023-08-22T14:06:44.484Z,93907.00
2023-08-22T14:09:25.498Z,93909.53
2023-08-22T14:11:55.161Z,93916.66
2023-08-22T14:14:22.378Z,93906.19
2023-08-22T14:16:49.732Z,93908.44
2023-08-22T14:19:16.724Z,93922.22
2023-08-22T14:21:48.063Z,93925.09
2023-08-22T14:24:16.766Z,93944.50
2023-08-22T14:26:43.974Z,93945.03
2023-08-22T14:29:12.407Z,93943.22
2023-08-22T14:31:39.694Z,93946.44
2023-08-22T14:34:06.964Z,93937.91
2023-08-22T14:36:33.930Z,93945.09
2023-08-22T14:39:00.962Z,93943.25
2023-08-22T14:41:28.822Z,93945.91
2023-08-22T14:43:56.565Z,93941.56
2023-08-22T14:46:24.947Z,93927.22
2023-08-22T14:48:51.972Z,93930.97
2023-08-22T14:51:19.745Z,93912.91
2023-08-22T14:53:46.986Z,93922.69
2023-08-22T14:56:13.904Z,93918.53
2023-08-22T14:58:42.043Z,93909.81
2023-08-22T15:01:09.938Z,93914.84
2023-08-22T15:03:39.856Z,93916.19
2023-08-22T15:06:06.981Z,93911.19
2023-08-22T15:08:34.982Z,93910.94
2023-08-22T15:11:02.637Z,93905.41
2023-08-22T15:13:30.141Z,93903.53
2023-08-22T15:15:58.418Z,93905.13
2023-08-22T15:18:29.071Z,93897.22
2023-08-22T15:20:58.320Z,93893.22
2023-08-22T15:23:25.400Z,93897.72
2023-08-22T15:25:53.266Z,93899.06
2023-08-22T15:28:20.946Z,93892.72
2023-08-22T15:30:48.546Z,93890.84
2023-08-22T15:33:15.666Z,93889.53
2023-08-22T15:35:46.643Z,93890.31
2023-08-22T15:38:15.532Z,93888.94
2023-08-22T15:40:46.640Z,93880.72
2023-08-22T15:43:14.125Z,93890.25
2023-08-22T15:45:41.258Z,93881.53
2023-08-22T15:48:08.324Z,93886.00
2023-08-22T15:50:35.286Z,93887.63
2023-08-22T15:53:02.206Z,93880.97
2023-08-22T15:55:30.856Z,93892.91
2023-08-22T15:57:57.973Z,93892.13
2023-08-22T16:00:25.037Z,93887.84
2023-08-22T16:02:52.619Z,93893.16
2023-08-22T16:05:19.846Z,93892.88
2023-08-22T16:07:47.028Z,93892.53
2023-08-22T16:10:14.138Z,93890.41
2023-08-22T16:12:42.584Z,93891.66
2023-08-22T16:15:10.374Z,93888.91
2023-08-22T16:17:37.556Z,93885.19
2023-08-22T16:20:05.257Z,93893.91
2023-08-22T16:22:32.517Z,93900.84
2023-08-22T16:24:59.252Z,93901.06
2023-08-22T16:27:36.769Z,93910.03
2023-08-22T16:30:07.934Z,93899.50
2023-08-22T16:32:35.295Z,93905.09
2023-08-22T16:35:02.316Z,93905.75
2023-08-22T16:37:29.402Z,93907.66
2023-08-22T16:39:56.442Z,93914.63
2023-08-22T16:42:23.435Z,93907.00
2023-08-22T16:44:50.476Z,93899.09
2023-08-22T16:47:18.875Z,93901.53
2023-08-22T16:49:46.076Z,93909.47
2023-08-22T16:52:13.038Z,93908.44
2023-08-22T16:54:40.030Z,93911.88
2023-08-22T16:57:07.180Z,93911.59
2023-08-22T16:59:34.084Z,93901.81
2023-08-22T17:02:02.737Z,93905.53
2023-08-22T17:04:31.161Z,93906.03
2023-08-22T17:06:58.370Z,93904.69
2023-08-22T17:09:25.454Z,93905.72
2023-08-22T17:11:52.369Z,93905.97
2023-08-22T17:14:19.511Z,93914.13
2023-08-22T17:16:46.658Z,93914.38
2023-08-22T17:19:14.046Z,93913.81
2023-08-22T17:21:42.410Z,93915.88
2023-08-22T17:24:10.068Z,93914.53
2023-08-22T17:26:37.214Z,93919.50
2023-08-22T17:29:04.432Z,93925.00
2023-08-22T17:31:31.495Z,93922.34
2023-08-22T17:33:58.576Z,93929.72
2023-08-22T17:36:25.615Z,93932.03
2023-08-22T17:38:54.039Z,93927.28
2023-08-22T17:41:21.184Z,93937.78
2023-08-22T17:43:48.297Z,93932.78
2023-08-22T17:46:17.110Z,93945.41
2023-08-22T17:48:44.218Z,93942.72
2023-08-22T17:51:12.000Z,93941.84
2023-08-22T17:53:38.962Z,93950.75
2023-08-22T17:56:08.739Z,93951.25
2023-08-22T17:58:35.700Z,93946.41
2023-08-22T18:01:03.118Z,93949.53
2023-08-22T18:03:30.330Z,93953.38
2023-08-22T18:05:58.277Z,93953.06
2023-08-22T18:08:26.261Z,93952.31
2023-08-22T18:10:53.931Z,93954.91
2023-08-22T18:13:22.402Z,93951.25
2023-08-22T18:16:02.654Z,93954.44
2023-08-22T18:18:34.292Z,93953.81
2023-08-22T18:21:04.635Z,93953.34
2023-08-22T18:23:32.028Z,93959.91
2023-08-22T18:25:59.194Z,93955.13
2023-08-22T18:28:29.163Z,93953.31
2023-08-22T18:30:58.600Z,93957.03
2023-08-22T18:33:25.726Z,93956.50
2023-08-22T18:35:53.081Z,93954.91
2023-08-22T18:38:19.931Z,93954.91
2023-08-22T18:40:47.028Z,93951.00
2023-08-22T18:43:13.992Z,93950.44
2023-08-22T18:45:42.458Z,93952.56
2023-08-22T18:48:09.537Z,93953.53
2023-08-22T18:50:36.781Z,93951.38
2023-08-22T18:53:04.528Z,93953.53
2023-08-22T18:55:33.457Z,93947.22
2023-08-22T18:58:00.561Z,93949.59
2023-08-22T19:00:27.573Z,93950.16
2023-08-22T19:02:57.785Z,93952.78
2023-08-22T19:05:25.311Z,93947.75
2023-08-22T19:07:52.992Z,93947.28
2023-08-22T19:10:20.155Z,93947.22
2023-08-22T19:12:47.436Z,93943.78
2023-08-22T19:15:14.496Z,93949.34
2023-08-22T19:17:41.545Z,93952.03
2023-08-22T19:20:11.391Z,93945.00
2023-08-22T19:22:39.406Z,93944.19
2023-08-22T19:25:11.121Z,93943.44
2023-08-22T19:27:38.244Z,93943.97
2023-08-22T19:30:06.463Z,93943.88
2023-08-22T19:32:54.138Z,93949.63
2023-08-22T19:35:22.249Z,93946.25
2023-08-22T19:37:49.384Z,93945.44
2023-08-22T19:40:16.780Z,93937.72
2023-08-22T19:42:43.864Z,93941.06
2023-08-22T19:45:11.653Z,93938.28
2023-08-22T19:47:40.423Z,93938.47
2023-08-22T19:50:08.277Z,93945.28
2023-08-22T19:52:36.670Z,93941.25
2023-08-22T19:55:05.780Z,93941.22
2023-08-22T19:57:32.886Z,93939.75
2023-08-22T19:59:59.957Z,93938.03
2023-08-22T20:02:27.180Z,93936.53
2023-08-22T20:04:54.288Z,93935.88
2023-08-22T20:07:21.401Z,93930.53
2023-08-22T20:09:49.878Z,93936.13
2023-08-22T20:12:17.293Z,93940.06
2023-08-22T20:14:44.297Z,93934.56
2023-08-22T20:17:11.260Z,93934.75
2023-08-22T20:19:38.244Z,93928.94
2023-08-22T20:22:05.305Z,93935.75
2023-08-22T20:24:32.326Z,93942.53
2023-08-22T20:27:07.327Z,93942.53
2023-08-22T20:29:34.352Z,93938.47
2023-08-22T20:32:01.360Z,93942.59
2023-08-22T20:34:28.337Z,93940.56
2023-08-22T20:36:55.608Z,93940.78
2023-08-22T20:39:26.308Z,93939.78
2023-08-22T20:41:53.324Z,93940.06
2023-08-22T20:44:21.714Z,93938.38
2023-08-22T20:46:48.873Z,93948.47
2023-08-22T20:49:15.875Z,93940.47
2023-08-22T20:51:42.959Z,93948.81
2023-08-22T20:54:09.934Z,93945.41
2023-08-22T20:56:36.828Z,93946.75
2023-08-22T20:59:03.861Z,93945.16
2023-08-22T21:01:32.348Z,93945.41
2023-08-22T21:03:59.744Z,93941.72
2023-08-22T21:06:27.019Z,93942.53
2023-08-22T21:08:54.621Z,93950.03
2023-08-22T21:11:21.294Z,93947.56
2023-08-22T21:13:48.399Z,93952.31
2023-08-22T21:16:15.409Z,93952.25
2023-08-22T21:18:43.838Z,93953.47
2023-08-22T21:21:10.797Z,93955.38
2023-08-22T21:23:37.769Z,93955.31
2023-08-22T21:26:04.720Z,93952.84
2023-08-22T21:28:31.723Z,93950.16
2023-08-22T21:30:58.682Z,93953.09
2023-08-22T21:33:25.721Z,93951.75
2023-08-22T21:35:54.147Z,93959.78
2023-08-22T21:38:21.194Z,93958.25
2023-08-22T21:40:48.598Z,93952.28
2023-08-22T21:43:15.934Z,93959.00
2023-08-22T21:45:43.104Z,93958.59
2023-08-22T21:48:10.351Z,93950.69
2023-08-22T21:50:37.380Z,93962.81
2023-08-22T21:53:05.910Z,93962.25
2023-08-22T21:55:32.877Z,93959.25
2023-08-22T21:57:59.954Z,93962.09
2023-08-22T22:00:27.083Z,93967.09
2023-08-22T22:02:54.391Z,93963.69
2023-08-22T22:05:21.378Z,93968.78
2023-08-22T22:07:48.655Z,93966.31
2023-08-22T22:10:17.268Z,93962.50
2023-08-22T22:12:44.489Z,93967.19
2023-08-22T22:15:12.036Z,93962.09
2023-08-22T22:17:40.797Z,93959.72
2023-08-22T22:20:09.063Z,93959.38
2023-08-22T22:22:36.119Z,93964.41
2023-08-22T22:25:03.684Z,93960.78
2023-08-22T22:27:32.001Z,93964.81
2023-08-22T22:29:59.076Z,93963.34
2023-08-22T22:32:26.269Z,93961.19
2023-08-22T22:34:53.159Z,93960.72
2023-08-22T22:37:20.168Z,93967.25
2023-08-22T22:39:47.148Z,93960.66
2023-08-22T22:42:14.248Z,93953.91
2023-08-22T22:44:42.684Z,93961.75
2023-08-22T22:47:09.748Z,93955.59
2023-08-22T22:49:36.699Z,93954.13
2023-08-22T22:52:04.138Z,93951.38
2023-08-22T22:54:31.120Z,93951.97
2023-08-22T22:56:58.139Z,93946.38
2023-08-22T22:59:25.570Z,93950.13
2023-08-22T23:01:54.061Z,93949.34
2023-08-22T23:04:20.990Z,93950.00
2023-08-22T23:06:47.973Z,93950.53
2023-08-22T23:09:15.156Z,93952.53
2023-08-22T23:11:50.055Z,93948.88
2023-08-22T23:14:28.875Z,93948.78
2023-08-22T23:16:57.320Z,93943.84
2023-08-22T23:19:24.274Z,93955.34
2023-08-22T23:21:51.402Z,93947.38
2023-08-22T23:24:18.578Z,93949.63
2023-08-22T23:26:45.542Z,93950.56
2023-08-22T23:29:12.604Z,93952.16
2023-08-22T23:31:39.673Z,93955.84
2023-08-22T23:34:08.010Z,93957.59
2023-08-22T23:36:34.974Z,93962.88
2023-08-22T23:39:02.033Z,93961.84
2023-08-22T23:41:28.954Z,93965.03
2023-08-22T23:43:56.090Z,93964.34
2023-08-22T23:46:23.155Z,93965.28
2023-08-22T23:48:50.069Z,93961.72
2023-08-22T23:51:18.778Z,93968.66
2023-08-22T23:53:45.888Z,93958.63
2023-08-22T23:56:12.987Z,93966.84
2023-08-22T23:58:39.982Z,93968.44
